sensor_id;sensor_type;location;lat;lon;timestamp;temperature;humidity
1337;DHT22;662;48.814;9.318;2022-08-18T00:01:08;22.60;66.70
1337;DHT22;662;48.814;9.318;2022-08-18T00:03:34;22.60;66.90
1337;DHT22;662;48.814;9.318;2022-08-18T00:06:00;22.50;67.00
1337;DHT22;662;48.814;9.318;2022-08-18T00:08:26;22.50;67.30
1337;DHT22;662;48.814;9.318;2022-08-18T00:10:54;22.50;67.10
1337;DHT22;662;48.814;9.318;2022-08-18T00:13:20;22.50;67.40
1337;DHT22;662;48.814;9.318;2022-08-18T00:15:46;22.40;67.60
1337;DHT22;662;48.814;9.318;2022-08-18T00:18:11;22.40;67.90
1337;DHT22;662;48.814;9.318;2022-08-18T00:20:39;22.40;68.10
1337;DHT22;662;48.814;9.318;2022-08-18T00:23:05;22.40;68.20
1337;DHT22;662;48.814;9.318;2022-08-18T00:25:31;22.40;68.40
1337;DHT22;662;48.814;9.318;2022-08-18T00:27:56;22.40;68.50
1337;DHT22;662;48.814;9.318;2022-08-18T00:30:22;22.40;68.70
1337;DHT22;662;48.814;9.318;2022-08-18T00:32:51;22.40;68.90
1337;DHT22;662;48.814;9.318;2022-08-18T00:35:21;22.30;69.00
1337;DHT22;662;48.814;9.318;2022-08-18T00:37:50;22.40;69.10
1337;DHT22;662;48.814;9.318;2022-08-18T00:40:19;22.40;69.00
1337;DHT22;662;48.814;9.318;2022-08-18T00:42:52;22.40;69.00
1337;DHT22;662;48.814;9.318;2022-08-18T00:45:29;22.40;68.80
1337;DHT22;662;48.814;9.318;2022-08-18T00:47:57;22.40;68.80
1337;DHT22;662;48.814;9.318;2022-08-18T00:50:30;22.40;68.80
1337;DHT22;662;48.814;9.318;2022-08-18T00:53:02;22.40;68.90
1337;DHT22;662;48.814;9.318;2022-08-18T00:55:31;22.50;69.00
1337;DHT22;662;48.814;9.318;2022-08-18T00:58:11;22.40;68.80
1337;DHT22;662;48.814;9.318;2022-08-18T01:00:40;22.50;69.10
1337;DHT22;662;48.814;9.318;2022-08-18T01:03:10;22.50;69.10
1337;DHT22;662;48.814;9.318;2022-08-18T01:05:44;22.40;68.90
1337;DHT22;662;48.814;9.318;2022-08-18T01:08:13;22.40;69.00
1337;DHT22;662;48.814;9.318;2022-08-18T01:10:40;22.50;69.50
1337;DHT22;662;48.814;9.318;2022-08-18T01:13:06;22.50;69.70
1337;DHT22;662;48.814;9.318;2022-08-18T01:15:32;22.40;69.80
1337;DHT22;662;48.814;9.318;2022-08-18T01:18:05;22.40;70.00
1337;DHT22;662;48.814;9.318;2022-08-18T01:21:11;22.40;70.20
1337;DHT22;662;48.814;9.318;2022-08-18T01:23:57;22.40;70.20
1337;DHT22;662;48.814;9.318;2022-08-18T01:26:25;22.40;70.10
1337;DHT22;662;48.814;9.318;2022-08-18T01:28:51;22.40;70.30
1337;DHT22;662;48.814;9.318;2022-08-18T01:31:35;22.40;70.50
1337;DHT22;662;48.814;9.318;2022-08-18T01:34:03;22.40;70.60
1337;DHT22;662;48.814;9.318;2022-08-18T01:36:29;22.40;70.50
1337;DHT22;662;48.814;9.318;2022-08-18T01:38:55;22.40;70.30
1337;DHT22;662;48.814;9.318;2022-08-18T01:41:22;22.40;70.20
1337;DHT22;662;48.814;9.318;2022-08-18T01:43:48;22.40;70.40
1337;DHT22;662;48.814;9.318;2022-08-18T01:46:21;22.40;70.50
1337;DHT22;662;48.814;9.318;2022-08-18T01:48:47;22.40;70.50
1337;DHT22;662;48.814;9.318;2022-08-18T01:51:14;22.40;70.70
1337;DHT22;662;48.814;9.318;2022-08-18T01:53:40;22.40;71.00
1337;DHT22;662;48.814;9.318;2022-08-18T01:56:07;22.40;71.20
1337;DHT22;662;48.814;9.318;2022-08-18T01:58:34;22.40;71.70
1337;DHT22;662;48.814;9.318;2022-08-18T02:01:01;22.30;71.20
1337;DHT22;662;48.814;9.318;2022-08-18T02:03:34;22.40;71.50
1337;DHT22;662;48.814;9.318;2022-08-18T02:06:02;22.30;71.10
1337;DHT22;662;48.814;9.318;2022-08-18T02:08:29;22.30;71.10
1337;DHT22;662;48.814;9.318;2022-08-18T02:10:56;22.40;71.40
1337;DHT22;662;48.814;9.318;2022-08-18T02:13:23;22.30;71.50
1337;DHT22;662;48.814;9.318;2022-08-18T02:15:49;22.30;71.50
1337;DHT22;662;48.814;9.318;2022-08-18T02:18:19;22.30;71.40
1337;DHT22;662;48.814;9.318;2022-08-18T02:20:45;22.40;71.70
1337;DHT22;662;48.814;9.318;2022-08-18T02:23:12;22.30;71.40
1337;DHT22;662;48.814;9.318;2022-08-18T02:25:38;22.20;71.30
1337;DHT22;662;48.814;9.318;2022-08-18T02:28:04;22.20;71.10
1337;DHT22;662;48.814;9.318;2022-08-18T02:30:30;22.10;71.40
1337;DHT22;662;48.814;9.318;2022-08-18T02:32:58;22.10;70.60
1337;DHT22;662;48.814;9.318;2022-08-18T02:35:24;22.00;70.60
1337;DHT22;662;48.814;9.318;2022-08-18T02:37:49;21.90;70.60
1337;DHT22;662;48.814;9.318;2022-08-18T02:40:16;21.90;70.70
1337;DHT22;662;48.814;9.318;2022-08-18T02:42:43;21.90;70.50
1337;DHT22;662;48.814;9.318;2022-08-18T02:45:10;21.90;70.60
1337;DHT22;662;48.814;9.318;2022-08-18T02:47:37;21.80;70.60
1337;DHT22;662;48.814;9.318;2022-08-18T02:50:03;21.80;70.90
1337;DHT22;662;48.814;9.318;2022-08-18T02:52:28;21.80;71.00
1337;DHT22;662;48.814;9.318;2022-08-18T02:54:58;21.80;71.10
1337;DHT22;662;48.814;9.318;2022-08-18T02:57:26;21.80;71.00
1337;DHT22;662;48.814;9.318;2022-08-18T02:59:52;21.80;70.90
1337;DHT22;662;48.814;9.318;2022-08-18T03:02:18;21.70;70.80
1337;DHT22;662;48.814;9.318;2022-08-18T03:04:45;21.70;70.90
1337;DHT22;662;48.814;9.318;2022-08-18T03:07:11;21.70;71.00
1337;DHT22;662;48.814;9.318;2022-08-18T03:09:39;21.70;71.40
1337;DHT22;662;48.814;9.318;2022-08-18T03:12:05;21.70;71.60
1337;DHT22;662;48.814;9.318;2022-08-18T03:14:32;21.70;71.80
1337;DHT22;662;48.814;9.318;2022-08-18T03:16:58;21.70;72.00
1337;DHT22;662;48.814;9.318;2022-08-18T03:19:28;21.70;72.20
1337;DHT22;662;48.814;9.318;2022-08-18T03:21:53;21.70;72.10
1337;DHT22;662;48.814;9.318;2022-08-18T03:24:20;21.70;72.00
1337;DHT22;662;48.814;9.318;2022-08-18T03:26:46;21.70;72.10
1337;DHT22;662;48.814;9.318;2022-08-18T03:29:13;21.70;72.10
1337;DHT22;662;48.814;9.318;2022-08-18T03:31:42;21.80;71.80
1337;DHT22;662;48.814;9.318;2022-08-18T03:34:07;21.80;71.80
1337;DHT22;662;48.814;9.318;2022-08-18T03:36:34;21.80;71.90
1337;DHT22;662;48.814;9.318;2022-08-18T03:39:07;21.80;71.90
1337;DHT22;662;48.814;9.318;2022-08-18T03:41:33;21.80;71.90
1337;DHT22;662;48.814;9.318;2022-08-18T03:44:01;21.90;72.00
1337;DHT22;662;48.814;9.318;2022-08-18T03:46:27;21.90;72.10
1337;DHT22;662;48.814;9.318;2022-08-18T03:48:56;21.90;72.00
1337;DHT22;662;48.814;9.318;2022-08-18T03:51:30;21.90;71.90
1337;DHT22;662;48.814;9.318;2022-08-18T03:53:59;21.90;71.90
1337;DHT22;662;48.814;9.318;2022-08-18T03:56:28;21.90;71.70
1337;DHT22;662;48.814;9.318;2022-08-18T03:58:58;21.90;71.60
1337;DHT22;662;48.814;9.318;2022-08-18T04:01:30;21.90;71.30
1337;DHT22;662;48.814;9.318;2022-08-18T04:04:00;21.90;71.20
1337;DHT22;662;48.814;9.318;2022-08-18T04:06:31;21.90;71.30
1337;DHT22;662;48.814;9.318;2022-08-18T04:08:59;21.80;71.30
1337;DHT22;662;48.814;9.318;2022-08-18T04:11:25;21.80;71.10
1337;DHT22;662;48.814;9.318;2022-08-18T04:13:55;21.80;71.00
1337;DHT22;662;48.814;9.318;2022-08-18T04:16:25;21.80;71.10
1337;DHT22;662;48.814;9.318;2022-08-18T04:18:51;21.70;71.00
1337;DHT22;662;48.814;9.318;2022-08-18T04:21:17;21.70;71.00
1337;DHT22;662;48.814;9.318;2022-08-18T04:23:43;21.60;71.00
1337;DHT22;662;48.814;9.318;2022-08-18T04:26:10;21.60;71.10
1337;DHT22;662;48.814;9.318;2022-08-18T04:28:37;21.60;71.30
1337;DHT22;662;48.814;9.318;2022-08-18T04:31:10;21.50;71.50
1337;DHT22;662;48.814;9.318;2022-08-18T04:33:36;21.60;71.70
1337;DHT22;662;48.814;9.318;2022-08-18T04:36:28;21.50;71.60
1337;DHT22;662;48.814;9.318;2022-08-18T04:38:55;21.50;71.50
1337;DHT22;662;48.814;9.318;2022-08-18T04:41:21;21.50;71.60
1337;DHT22;662;48.814;9.318;2022-08-18T04:43:53;21.40;71.60
1337;DHT22;662;48.814;9.318;2022-08-18T04:46:18;21.40;71.80
1337;DHT22;662;48.814;9.318;2022-08-18T04:48:44;21.40;72.00
1337;DHT22;662;48.814;9.318;2022-08-18T04:51:12;21.40;72.00
1337;DHT22;662;48.814;9.318;2022-08-18T04:53:41;21.40;72.00
1337;DHT22;662;48.814;9.318;2022-08-18T04:58:38;21.40;72.00
1337;DHT22;662;48.814;9.318;2022-08-18T05:01:04;21.40;72.10
1337;DHT22;662;48.814;9.318;2022-08-18T05:03:30;21.40;72.10
1337;DHT22;662;48.814;9.318;2022-08-18T05:05:57;21.50;72.30
1337;DHT22;662;48.814;9.318;2022-08-18T05:08:25;21.50;72.20
1337;DHT22;662;48.814;9.318;2022-08-18T05:10:55;21.50;72.00
1337;DHT22;662;48.814;9.318;2022-08-18T05:13:23;21.50;72.00
1337;DHT22;662;48.814;9.318;2022-08-18T05:15:57;21.60;72.00
1337;DHT22;662;48.814;9.318;2022-08-18T05:18:24;21.70;72.00
1337;DHT22;662;48.814;9.318;2022-08-18T05:20:54;21.70;71.80
1337;DHT22;662;48.814;9.318;2022-08-18T05:23:20;21.80;71.60
1337;DHT22;662;48.814;9.318;2022-08-18T05:25:46;21.90;71.40
1337;DHT22;662;48.814;9.318;2022-08-18T05:28:12;21.90;71.10
1337;DHT22;662;48.814;9.318;2022-08-18T05:30:38;21.90;70.90
1337;DHT22;662;48.814;9.318;2022-08-18T05:33:06;21.90;71.00
1337;DHT22;662;48.814;9.318;2022-08-18T05:35:46;21.90;71.20
1337;DHT22;662;48.814;9.318;2022-08-18T05:41:14;21.90;71.40
1337;DHT22;662;48.814;9.318;2022-08-18T05:43:44;21.90;71.50
1337;DHT22;662;48.814;9.318;2022-08-18T05:46:11;22.00;71.40
1337;DHT22;662;48.814;9.318;2022-08-18T05:48:37;22.00;71.30
1337;DHT22;662;48.814;9.318;2022-08-18T05:51:32;22.10;71.10
1337;DHT22;662;48.814;9.318;2022-08-18T05:54:00;22.10;71.00
1337;DHT22;662;48.814;9.318;2022-08-18T05:56:46;22.20;71.00
1337;DHT22;662;48.814;9.318;2022-08-18T05:59:26;22.30;70.90
1337;DHT22;662;48.814;9.318;2022-08-18T06:04:52;22.40;70.40
1337;DHT22;662;48.814;9.318;2022-08-18T06:07:30;22.40;70.20
1337;DHT22;662;48.814;9.318;2022-08-18T06:09:59;22.40;70.10
1337;DHT22;662;48.814;9.318;2022-08-18T06:12:37;22.50;70.40
1337;DHT22;662;48.814;9.318;2022-08-18T06:15:12;22.40;70.60
1337;DHT22;662;48.814;9.318;2022-08-18T06:26:19;22.50;70.00
1337;DHT22;662;48.814;9.318;2022-08-18T06:37:47;22.70;69.70
1337;DHT22;662;48.814;9.318;2022-08-18T06:40:33;22.80;69.60
1337;DHT22;662;48.814;9.318;2022-08-18T06:42:59;22.90;69.40
1337;DHT22;662;48.814;9.318;2022-08-18T06:45:32;22.90;68.90
1337;DHT22;662;48.814;9.318;2022-08-18T06:50:51;23.00;68.60
1337;DHT22;662;48.814;9.318;2022-08-18T06:53:18;23.10;68.30
1337;DHT22;662;48.814;9.318;2022-08-18T06:55:46;23.20;68.20
1337;DHT22;662;48.814;9.318;2022-08-18T07:01:05;23.40;68.00
1337;DHT22;662;48.814;9.318;2022-08-18T07:06:24;23.60;67.30
1337;DHT22;662;48.814;9.318;2022-08-18T07:08:52;23.60;67.00
1337;DHT22;662;48.814;9.318;2022-08-18T07:11:23;23.70;66.80
1337;DHT22;662;48.814;9.318;2022-08-18T07:13:55;23.70;66.50
1337;DHT22;662;48.814;9.318;2022-08-18T07:18:49;23.70;65.80
1337;DHT22;662;48.814;9.318;2022-08-18T07:21:30;23.70;65.50
1337;DHT22;662;48.814;9.318;2022-08-18T07:24:20;23.70;65.60
1337;DHT22;662;48.814;9.318;2022-08-18T07:27:10;23.70;65.80
1337;DHT22;662;48.814;9.318;2022-08-18T07:32:34;23.80;65.40
1337;DHT22;662;48.814;9.318;2022-08-18T07:35:03;23.80;65.30
1337;DHT22;662;48.814;9.318;2022-08-18T07:45:46;23.90;64.20
1337;DHT22;662;48.814;9.318;2022-08-18T07:48:18;23.90;63.90
1337;DHT22;662;48.814;9.318;2022-08-18T07:53:36;23.80;63.00
1337;DHT22;662;48.814;9.318;2022-08-18T07:56:16;23.70;62.80
1337;DHT22;662;48.814;9.318;2022-08-18T07:58:55;23.60;62.40
1337;DHT22;662;48.814;9.318;2022-08-18T08:05:03;23.40;62.80
1337;DHT22;662;48.814;9.318;2022-08-18T08:07:55;23.30;63.30
1337;DHT22;662;48.814;9.318;2022-08-18T08:18:07;23.30;65.00
1337;DHT22;662;48.814;9.318;2022-08-18T08:20:54;23.20;65.60
1337;DHT22;662;48.814;9.318;2022-08-18T08:23:32;23.10;65.90
1337;DHT22;662;48.814;9.318;2022-08-18T08:34:25;23.10;66.90
1337;DHT22;662;48.814;9.318;2022-08-18T08:37:03;23.10;67.60
1337;DHT22;662;48.814;9.318;2022-08-18T08:39:42;23.20;66.90
1337;DHT22;662;48.814;9.318;2022-08-18T08:42:22;23.30;66.80
1337;DHT22;662;48.814;9.318;2022-08-18T08:44:57;23.30;66.70
1337;DHT22;662;48.814;9.318;2022-08-18T08:49:59;23.50;66.40
1337;DHT22;662;48.814;9.318;2022-08-18T08:54:56;23.70;66.20
1337;DHT22;662;48.814;9.318;2022-08-18T08:57:33;23.70;65.80
1337;DHT22;662;48.814;9.318;2022-08-18T09:00:02;23.90;65.60
1337;DHT22;662;48.814;9.318;2022-08-18T09:02:37;24.00;65.40
1337;DHT22;662;48.814;9.318;2022-08-18T09:05:23;24.10;64.10
1337;DHT22;662;48.814;9.318;2022-08-18T09:16:22;24.90;61.70
1337;DHT22;662;48.814;9.318;2022-08-18T09:19:20;25.00;60.80
1337;DHT22;662;48.814;9.318;2022-08-18T09:22:02;25.20;59.90
1337;DHT22;662;48.814;9.318;2022-08-18T09:24:31;25.50;59.10
1337;DHT22;662;48.814;9.318;2022-08-18T09:29:58;27.50;56.60
1337;DHT22;662;48.814;9.318;2022-08-18T09:35:17;28.90;52.00
1337;DHT22;662;48.814;9.318;2022-08-18T09:38:04;29.20;50.90
1337;DHT22;662;48.814;9.318;2022-08-18T09:41:12;29.50;50.00
1337;DHT22;662;48.814;9.318;2022-08-18T09:57:37;32.10;45.00
1337;DHT22;662;48.814;9.318;2022-08-18T10:11:06;34.20;40.50
1337;DHT22;662;48.814;9.318;2022-08-18T10:13:43;34.20;40.20
1337;DHT22;662;48.814;9.318;2022-08-18T10:16:22;34.40;39.60
1337;DHT22;662;48.814;9.318;2022-08-18T10:19:07;34.70;39.30
1337;DHT22;662;48.814;9.318;2022-08-18T10:26:58;35.10;37.70
1337;DHT22;662;48.814;9.318;2022-08-18T10:37:41;35.20;37.30
1337;DHT22;662;48.814;9.318;2022-08-18T10:45:24;36.10;35.40
1337;DHT22;662;48.814;9.318;2022-08-18T10:50:33;36.00;34.90
1337;DHT22;662;48.814;9.318;2022-08-18T10:53:10;35.90;35.00
1337;DHT22;662;48.814;9.318;2022-08-18T10:55:47;35.70;35.30
1337;DHT22;662;48.814;9.318;2022-08-18T10:58:20;35.30;35.70
1337;DHT22;662;48.814;9.318;2022-08-18T11:01:08;34.90;36.00
1337;DHT22;662;48.814;9.318;2022-08-18T11:06:24;34.90;36.40
1337;DHT22;662;48.814;9.318;2022-08-18T11:08:54;34.70;36.30
1337;DHT22;662;48.814;9.318;2022-08-18T11:11:24;34.40;37.20
1337;DHT22;662;48.814;9.318;2022-08-18T11:19:12;34.90;36.70
1337;DHT22;662;48.814;9.318;2022-08-18T11:21:46;35.00;37.00
1337;DHT22;662;48.814;9.318;2022-08-18T11:24:16;35.00;36.90
1337;DHT22;662;48.814;9.318;2022-08-18T11:31:49;34.50;36.90
1337;DHT22;662;48.814;9.318;2022-08-18T11:34:20;34.10;37.40
1337;DHT22;662;48.814;9.318;2022-08-18T11:36:58;33.90;38.10
1337;DHT22;662;48.814;9.318;2022-08-18T11:39:24;33.60;38.80
1337;DHT22;662;48.814;9.318;2022-08-18T11:41:50;33.70;39.00
1337;DHT22;662;48.814;9.318;2022-08-18T11:44:19;34.10;38.70
1337;DHT22;662;48.814;9.318;2022-08-18T11:46:46;34.60;37.50
1337;DHT22;662;48.814;9.318;2022-08-18T11:49:18;34.80;37.00
1337;DHT22;662;48.814;9.318;2022-08-18T11:51:57;34.80;36.20
1337;DHT22;662;48.814;9.318;2022-08-18T11:54:34;34.80;36.60
1337;DHT22;662;48.814;9.318;2022-08-18T11:57:29;34.70;36.40
1337;DHT22;662;48.814;9.318;2022-08-18T11:59:56;34.70;36.70
1337;DHT22;662;48.814;9.318;2022-08-18T12:02:23;34.70;36.60
1337;DHT22;662;48.814;9.318;2022-08-18T12:04:59;34.70;36.50
1337;DHT22;662;48.814;9.318;2022-08-18T12:07:31;34.70;36.20
1337;DHT22;662;48.814;9.318;2022-08-18T12:10:24;34.70;36.40
1337;DHT22;662;48.814;9.318;2022-08-18T12:12:53;34.90;36.40
1337;DHT22;662;48.814;9.318;2022-08-18T12:17:46;35.00;36.00
1337;DHT22;662;48.814;9.318;2022-08-18T12:20:13;35.10;36.10
1337;DHT22;662;48.814;9.318;2022-08-18T12:22:40;35.30;36.20
1337;DHT22;662;48.814;9.318;2022-08-18T12:25:10;35.60;35.30
1337;DHT22;662;48.814;9.318;2022-08-18T12:27:36;35.50;34.80
1337;DHT22;662;48.814;9.318;2022-08-18T12:30:02;35.30;35.10
1337;DHT22;662;48.814;9.318;2022-08-18T12:32:29;35.60;35.60
1337;DHT22;662;48.814;9.318;2022-08-18T12:34:56;35.80;35.00
1337;DHT22;662;48.814;9.318;2022-08-18T12:37:24;36.20;34.70
1337;DHT22;662;48.814;9.318;2022-08-18T12:39:51;36.50;33.90
1337;DHT22;662;48.814;9.318;2022-08-18T12:42:18;36.30;33.80
1337;DHT22;662;48.814;9.318;2022-08-18T12:44:45;36.10;33.80
1337;DHT22;662;48.814;9.318;2022-08-18T12:47:23;36.30;34.00
1337;DHT22;662;48.814;9.318;2022-08-18T12:49:49;36.50;33.60
1337;DHT22;662;48.814;9.318;2022-08-18T12:52:16;36.70;33.20
1337;DHT22;662;48.814;9.318;2022-08-18T12:54:41;36.60;32.80
1337;DHT22;662;48.814;9.318;2022-08-18T12:57:20;36.90;33.20
1337;DHT22;662;48.814;9.318;2022-08-18T12:59:46;37.20;32.50
1337;DHT22;662;48.814;9.318;2022-08-18T13:02:11;37.40;32.40
1337;DHT22;662;48.814;9.318;2022-08-18T13:04:37;37.70;32.20
1337;DHT22;662;48.814;9.318;2022-08-18T13:07:03;38.00;31.40
1337;DHT22;662;48.814;9.318;2022-08-18T13:09:31;38.30;31.10
1337;DHT22;662;48.814;9.318;2022-08-18T13:11:57;38.50;30.60
1337;DHT22;662;48.814;9.318;2022-08-18T13:14:22;38.60;30.20
1337;DHT22;662;48.814;9.318;2022-08-18T13:16:48;38.20;29.90
1337;DHT22;662;48.814;9.318;2022-08-18T13:19:14;37.70;30.20
1337;DHT22;662;48.814;9.318;2022-08-18T13:21:40;37.50;31.20
1337;DHT22;662;48.814;9.318;2022-08-18T13:24:06;37.40;31.30
1337;DHT22;662;48.814;9.318;2022-08-18T13:26:35;37.60;31.20
1337;DHT22;662;48.814;9.318;2022-08-18T13:29:02;37.60;30.80
1337;DHT22;662;48.814;9.318;2022-08-18T13:31:28;37.10;31.20
1337;DHT22;662;48.814;9.318;2022-08-18T13:33:55;36.50;31.50
1337;DHT22;662;48.814;9.318;2022-08-18T13:36:21;36.00;32.20
1337;DHT22;662;48.814;9.318;2022-08-18T13:38:47;35.60;33.00
1337;DHT22;662;48.814;9.318;2022-08-18T13:41:14;35.20;33.50
1337;DHT22;662;48.814;9.318;2022-08-18T13:43:41;34.80;33.60
1337;DHT22;662;48.814;9.318;2022-08-18T13:46:14;34.50;34.00
1337;DHT22;662;48.814;9.318;2022-08-18T13:48:40;34.10;34.50
1337;DHT22;662;48.814;9.318;2022-08-18T13:51:08;33.70;35.00
1337;DHT22;662;48.814;9.318;2022-08-18T13:53:37;33.60;35.50
1337;DHT22;662;48.814;9.318;2022-08-18T13:56:04;33.80;35.30
1337;DHT22;662;48.814;9.318;2022-08-18T13:58:30;34.20;35.40
1337;DHT22;662;48.814;9.318;2022-08-18T14:01:03;34.60;35.00
1337;DHT22;662;48.814;9.318;2022-08-18T14:03:29;35.00;34.10
1337;DHT22;662;48.814;9.318;2022-08-18T14:05:55;35.30;33.80
1337;DHT22;662;48.814;9.318;2022-08-18T14:08:25;35.40;33.20
1337;DHT22;662;48.814;9.318;2022-08-18T14:10:55;35.40;33.20
1337;DHT22;662;48.814;9.318;2022-08-18T14:13:21;35.50;33.10
1337;DHT22;662;48.814;9.318;2022-08-18T14:15:49;35.60;32.70
1337;DHT22;662;48.814;9.318;2022-08-18T14:18:15;35.80;32.50
1337;DHT22;662;48.814;9.318;2022-08-18T14:20:40;36.00;32.20
1337;DHT22;662;48.814;9.318;2022-08-18T14:23:24;36.30;31.90
1337;DHT22;662;48.814;9.318;2022-08-18T14:26:09;36.50;31.60
1337;DHT22;662;48.814;9.318;2022-08-18T14:28:53;36.60;31.00
1337;DHT22;662;48.814;9.318;2022-08-18T14:31:19;36.70;30.90
1337;DHT22;662;48.814;9.318;2022-08-18T14:33:45;36.80;30.50
1337;DHT22;662;48.814;9.318;2022-08-18T14:36:12;36.80;30.70
1337;DHT22;662;48.814;9.318;2022-08-18T14:38:39;36.60;30.70
1337;DHT22;662;48.814;9.318;2022-08-18T14:41:10;36.50;30.70
1337;DHT22;662;48.814;9.318;2022-08-18T14:43:39;36.50;31.10
1337;DHT22;662;48.814;9.318;2022-08-18T14:46:05;36.60;31.00
1337;DHT22;662;48.814;9.318;2022-08-18T14:48:31;36.50;30.70
1337;DHT22;662;48.814;9.318;2022-08-18T14:50:58;36.00;31.10
1337;DHT22;662;48.814;9.318;2022-08-18T14:53:29;35.60;31.80
1337;DHT22;662;48.814;9.318;2022-08-18T14:55:56;35.40;32.40
1337;DHT22;662;48.814;9.318;2022-08-18T14:58:26;35.40;32.60
1337;DHT22;662;48.814;9.318;2022-08-18T15:00:58;35.30;32.50
1337;DHT22;662;48.814;9.318;2022-08-18T15:03:27;35.20;33.00
1337;DHT22;662;48.814;9.318;2022-08-18T15:05:53;35.00;33.50
1337;DHT22;662;48.814;9.318;2022-08-18T15:08:19;34.50;33.30
1337;DHT22;662;48.814;9.318;2022-08-18T15:10:45;34.10;34.20
1337;DHT22;662;48.814;9.318;2022-08-18T15:13:11;33.70;34.90
1337;DHT22;662;48.814;9.318;2022-08-18T15:15:37;33.30;35.70
1337;DHT22;662;48.814;9.318;2022-08-18T15:18:03;33.00;36.30
1337;DHT22;662;48.814;9.318;2022-08-18T15:20:29;32.70;36.80
1337;DHT22;662;48.814;9.318;2022-08-18T15:23:02;32.40;37.20
1337;DHT22;662;48.814;9.318;2022-08-18T15:25:47;32.20;37.50
1337;DHT22;662;48.814;9.318;2022-08-18T15:28:19;31.90;37.90
1337;DHT22;662;48.814;9.318;2022-08-18T15:30:49;31.70;38.10
1337;DHT22;662;48.814;9.318;2022-08-18T15:33:16;31.50;38.40
1337;DHT22;662;48.814;9.318;2022-08-18T15:35:44;31.30;38.80
1337;DHT22;662;48.814;9.318;2022-08-18T15:38:11;31.10;39.10
1337;DHT22;662;48.814;9.318;2022-08-18T15:40:56;30.90;39.40
1337;DHT22;662;48.814;9.318;2022-08-18T15:43:26;30.80;40.40
1337;DHT22;662;48.814;9.318;2022-08-18T15:45:53;30.60;40.10
1337;DHT22;662;48.814;9.318;2022-08-18T15:48:20;30.40;40.50
1337;DHT22;662;48.814;9.318;2022-08-18T15:50:48;30.30;40.80
1337;DHT22;662;48.814;9.318;2022-08-18T15:53:20;30.20;40.90
1337;DHT22;662;48.814;9.318;2022-08-18T15:55:46;30.10;41.40
1337;DHT22;662;48.814;9.318;2022-08-18T15:58:12;30.00;41.50
1337;DHT22;662;48.814;9.318;2022-08-18T16:00:41;29.90;42.30
1337;DHT22;662;48.814;9.318;2022-08-18T16:03:09;29.90;42.10
1337;DHT22;662;48.814;9.318;2022-08-18T16:05:40;29.80;42.20
1337;DHT22;662;48.814;9.318;2022-08-18T16:08:08;29.70;42.30
1337;DHT22;662;48.814;9.318;2022-08-18T16:10:36;29.70;42.50
1337;DHT22;662;48.814;9.318;2022-08-18T16:13:03;29.60;42.50
1337;DHT22;662;48.814;9.318;2022-08-18T16:15:34;29.60;42.60
1337;DHT22;662;48.814;9.318;2022-08-18T16:17:59;29.60;42.60
1337;DHT22;662;48.814;9.318;2022-08-18T16:20:25;29.50;42.60
1337;DHT22;662;48.814;9.318;2022-08-18T16:22:54;29.50;42.70
1337;DHT22;662;48.814;9.318;2022-08-18T16:25:22;29.40;43.00
1337;DHT22;662;48.814;9.318;2022-08-18T16:27:48;29.40;43.10
1337;DHT22;662;48.814;9.318;2022-08-18T16:30:16;29.30;43.10
1337;DHT22;662;48.814;9.318;2022-08-18T16:32:43;29.30;43.20
1337;DHT22;662;48.814;9.318;2022-08-18T16:35:09;29.20;43.30
1337;DHT22;662;48.814;9.318;2022-08-18T16:37:35;29.20;43.40
1337;DHT22;662;48.814;9.318;2022-08-18T16:40:02;29.10;43.40
1337;DHT22;662;48.814;9.318;2022-08-18T16:42:27;29.10;43.60
1337;DHT22;662;48.814;9.318;2022-08-18T16:44:58;29.00;43.60
1337;DHT22;662;48.814;9.318;2022-08-18T16:47:24;29.00;43.70
1337;DHT22;662;48.814;9.318;2022-08-18T16:49:49;29.00;43.70
1337;DHT22;662;48.814;9.318;2022-08-18T16:52:16;28.90;43.60
1337;DHT22;662;48.814;9.318;2022-08-18T16:54:43;28.90;43.60
1337;DHT22;662;48.814;9.318;2022-08-18T16:57:09;28.90;43.70
1337;DHT22;662;48.814;9.318;2022-08-18T16:59:36;28.80;43.80
1337;DHT22;662;48.814;9.318;2022-08-18T17:02:20;28.80;43.80
1337;DHT22;662;48.814;9.318;2022-08-18T17:05:05;28.70;43.80
1337;DHT22;662;48.814;9.318;2022-08-18T17:07:32;28.60;43.80
1337;DHT22;662;48.814;9.318;2022-08-18T17:09:58;28.60;44.00
1337;DHT22;662;48.814;9.318;2022-08-18T17:12:25;28.50;43.90
1337;DHT22;662;48.814;9.318;2022-08-18T17:14:51;28.40;43.80
1337;DHT22;662;48.814;9.318;2022-08-18T17:17:19;28.40;44.00
1337;DHT22;662;48.814;9.318;2022-08-18T17:19:45;28.30;44.20
1337;DHT22;662;48.814;9.318;2022-08-18T17:22:11;28.20;45.00
1337;DHT22;662;48.814;9.318;2022-08-18T17:24:37;28.10;45.70
1337;DHT22;662;48.814;9.318;2022-08-18T17:27:16;28.10;45.90
1337;DHT22;662;48.814;9.318;2022-08-18T17:29:52;28.00;46.20
1337;DHT22;662;48.814;9.318;2022-08-18T17:38:04;27.80;47.60
1337;DHT22;662;48.814;9.318;2022-08-18T17:40:49;27.70;47.80
1337;DHT22;662;48.814;9.318;2022-08-18T17:43:18;27.70;48.10
1337;DHT22;662;48.814;9.318;2022-08-18T17:45:54;27.60;48.30
1337;DHT22;662;48.814;9.318;2022-08-18T17:48:45;27.60;48.40
1337;DHT22;662;48.814;9.318;2022-08-18T17:51:20;27.60;48.70
1337;DHT22;662;48.814;9.318;2022-08-18T17:54:01;27.50;48.80
1337;DHT22;662;48.814;9.318;2022-08-18T17:56:36;27.50;49.20
1337;DHT22;662;48.814;9.318;2022-08-18T17:59:12;27.40;49.30
1337;DHT22;662;48.814;9.318;2022-08-18T18:01:39;27.30;49.40
1337;DHT22;662;48.814;9.318;2022-08-18T18:04:07;27.30;49.60
1337;DHT22;662;48.814;9.318;2022-08-18T18:09:05;27.20;50.60
1337;DHT22;662;48.814;9.318;2022-08-18T18:11:40;27.20;51.00
1337;DHT22;662;48.814;9.318;2022-08-18T18:14:28;27.10;51.00
1337;DHT22;662;48.814;9.318;2022-08-18T18:19:46;26.80;51.10
1337;DHT22;662;48.814;9.318;2022-08-18T18:22:19;26.80;51.20
1337;DHT22;662;48.814;9.318;2022-08-18T18:25:04;26.70;51.30
1337;DHT22;662;48.814;9.318;2022-08-18T18:30:03;26.60;51.40
1337;DHT22;662;48.814;9.318;2022-08-18T18:38:33;26.50;51.60
1337;DHT22;662;48.814;9.318;2022-08-18T18:43:35;26.50;51.60
1337;DHT22;662;48.814;9.318;2022-08-18T18:49:05;26.40;51.70
1337;DHT22;662;48.814;9.318;2022-08-18T19:00:10;26.20;52.00
1337;DHT22;662;48.814;9.318;2022-08-18T19:05:38;26.20;52.20
1337;DHT22;662;48.814;9.318;2022-08-18T19:13:25;26.10;52.40
1337;DHT22;662;48.814;9.318;2022-08-18T19:15:54;26.10;52.90
1337;DHT22;662;48.814;9.318;2022-08-18T19:18:27;26.00;52.40
1337;DHT22;662;48.814;9.318;2022-08-18T19:20:57;26.00;52.50
1337;DHT22;662;48.814;9.318;2022-08-18T19:23:42;26.00;52.60
1337;DHT22;662;48.814;9.318;2022-08-18T19:26:11;26.00;52.60
1337;DHT22;662;48.814;9.318;2022-08-18T19:28:44;26.00;52.60
1337;DHT22;662;48.814;9.318;2022-08-18T19:31:30;26.00;52.70
1337;DHT22;662;48.814;9.318;2022-08-18T19:34:13;26.00;52.80
1337;DHT22;662;48.814;9.318;2022-08-18T19:39:22;25.90;52.90
1337;DHT22;662;48.814;9.318;2022-08-18T19:44:29;25.90;52.90
1337;DHT22;662;48.814;9.318;2022-08-18T19:49:57;25.80;53.00
1337;DHT22;662;48.814;9.318;2022-08-18T19:55:34;25.80;53.10
1337;DHT22;662;48.814;9.318;2022-08-18T19:58:38;25.80;53.10
1337;DHT22;662;48.814;9.318;2022-08-18T20:15:17;25.80;53.00
1337;DHT22;662;48.814;9.318;2022-08-18T20:20:40;25.80;52.80